sensor_id;sensor_type;location;lat;lon;timestamp;P1;durP1;ratioP1;P2;durP2;ratioP2
6442;SDS011;3254;47.372;8.512;2022-12-18T00:01:56;51.97;;;29.33;;
6442;SDS011;3254;47.372;8.512;2022-12-18T00:04:24;54.83;;;32.05;;
6442;SDS011;3254;47.372;8.512;2022-12-18T00:06:51;54.38;;;31.25;;
6442;SDS011;3254;47.372;8.512;2022-12-18T00:09:17;58.15;;;30.80;;
6442;SDS011;3254;47.372;8.512;2022-12-18T00:11:43;57.13;;;31.53;;
6442;SDS011;3254;47.372;8.512;2022-12-18T00:14:09;58.70;;;32.07;;
6442;SDS011;3254;47.372;8.512;2022-12-18T00:16:36;56.03;;;30.05;;
6442;SDS011;3254;47.372;8.512;2022-12-18T00:19:02;52.20;;;30.50;;
6442;SDS011;3254;47.372;8.512;2022-12-18T00:21:29;55.42;;;30.40;;
6442;SDS011;3254;47.372;8.512;2022-12-18T00:23:56;54.38;;;29.23;;
6442;SDS011;3254;47.372;8.512;2022-12-18T00:26:23;55.72;;;29.50;;
6442;SDS011;3254;47.372;8.512;2022-12-18T00:28:59;55.15;;;32.03;;
6442;SDS011;3254;47.372;8.512;2022-12-18T00:31:27;51.05;;;29.55;;
6442;SDS011;3254;47.372;8.512;2022-12-18T00:33:53;52.83;;;29.17;;
6442;SDS011;3254;47.372;8.512;2022-12-18T00:36:21;55.40;;;30.02;;
6442;SDS011;3254;47.372;8.512;2022-12-18T00:38:49;53.38;;;28.98;;
6442;SDS011;3254;47.372;8.512;2022-12-18T00:41:15;56.70;;;30.30;;
6442;SDS011;3254;47.372;8.512;2022-12-18T00:44:01;59.10;;;30.52;;
6442;SDS011;3254;47.372;8.512;2022-12-18T00:46:27;57.65;;;31.23;;
6442;SDS011;3254;47.372;8.512;2022-12-18T00:48:53;51.70;;;29.93;;
6442;SDS011;3254;47.372;8.512;2022-12-18T00:51:18;56.70;;;31.43;;
6442;SDS011;3254;47.372;8.512;2022-12-18T00:53:44;58.10;;;30.77;;
6442;SDS011;3254;47.372;8.512;2022-12-18T00:56:09;55.80;;;30.40;;
6442;SDS011;3254;47.372;8.512;2022-12-18T00:58:35;47.87;;;29.00;;
6442;SDS011;3254;47.372;8.512;2022-12-18T01:01:00;60.37;;;32.47;;
6442;SDS011;3254;47.372;8.512;2022-12-18T01:03:26;60.70;;;32.57;;
6442;SDS011;3254;47.372;8.512;2022-12-18T01:05:51;63.47;;;31.83;;
6442;SDS011;3254;47.372;8.512;2022-12-18T01:08:17;59.57;;;32.77;;
6442;SDS011;3254;47.372;8.512;2022-12-18T01:10:42;60.87;;;30.13;;
6442;SDS011;3254;47.372;8.512;2022-12-18T01:13:08;58.67;;;32.47;;
6442;SDS011;3254;47.372;8.512;2022-12-18T01:15:34;62.43;;;32.83;;
6442;SDS011;3254;47.372;8.512;2022-12-18T01:17:59;63.47;;;31.20;;
6442;SDS011;3254;47.372;8.512;2022-12-18T01:20:25;55.93;;;31.10;;
6442;SDS011;3254;47.372;8.512;2022-12-18T01:22:50;57.90;;;31.93;;
6442;SDS011;3254;47.372;8.512;2022-12-18T01:25:16;58.07;;;30.93;;
6442;SDS011;3254;47.372;8.512;2022-12-18T01:27:41;62.40;;;31.63;;
6442;SDS011;3254;47.372;8.512;2022-12-18T01:30:07;55.57;;;29.13;;
6442;SDS011;3254;47.372;8.512;2022-12-18T01:32:33;53.88;;;29.55;;
6442;SDS011;3254;47.372;8.512;2022-12-18T01:34:59;56.27;;;30.73;;
6442;SDS011;3254;47.372;8.512;2022-12-18T01:37:24;53.67;;;30.60;;
6442;SDS011;3254;47.372;8.512;2022-12-18T01:39:50;56.37;;;30.63;;
6442;SDS011;3254;47.372;8.512;2022-12-18T01:42:19;62.78;;;33.35;;
6442;SDS011;3254;47.372;8.512;2022-12-18T01:53:19;55.47;;;29.88;;
6442;SDS011;3254;47.372;8.512;2022-12-18T01:55:51;59.72;;;30.67;;
6442;SDS011;3254;47.372;8.512;2022-12-18T01:58:20;57.25;;;31.05;;
6442;SDS011;3254;47.372;8.512;2022-12-18T02:00:53;61.45;;;32.08;;
6442;SDS011;3254;47.372;8.512;2022-12-18T02:03:19;54.33;;;29.02;;
6442;SDS011;3254;47.372;8.512;2022-12-18T02:05:57;58.33;;;30.30;;
6442;SDS011;3254;47.372;8.512;2022-12-18T02:08:34;61.75;;;32.20;;
6442;SDS011;3254;47.372;8.512;2022-12-18T02:19:09;63.40;;;33.72;;
6442;SDS011;3254;47.372;8.512;2022-12-18T02:21:57;54.30;;;30.55;;
6442;SDS011;3254;47.372;8.512;2022-12-18T02:24:52;59.20;;;31.85;;
6442;SDS011;3254;47.372;8.512;2022-12-18T02:27:31;55.05;;;30.35;;
6442;SDS011;3254;47.372;8.512;2022-12-18T02:29:59;58.83;;;32.45;;
6442;SDS011;3254;47.372;8.512;2022-12-18T02:32:27;60.70;;;30.63;;
6442;SDS011;3254;47.372;8.512;2022-12-18T02:34:56;59.30;;;30.25;;
6442;SDS011;3254;47.372;8.512;2022-12-18T02:37:23;55.03;;;29.67;;
6442;SDS011;3254;47.372;8.512;2022-12-18T02:39:52;52.58;;;29.67;;
6442;SDS011;3254;47.372;8.512;2022-12-18T02:42:21;57.72;;;30.10;;
6442;SDS011;3254;47.372;8.512;2022-12-18T02:44:49;52.17;;;28.23;;
6442;SDS011;3254;47.372;8.512;2022-12-18T02:47:17;60.80;;;32.08;;
6442;SDS011;3254;47.372;8.512;2022-12-18T02:56:00;55.20;;;30.58;;
6442;SDS011;3254;47.372;8.512;2022-12-18T03:01:27;53.78;;;29.38;;
6442;SDS011;3254;47.372;8.512;2022-12-18T03:04:11;56.97;;;29.30;;
6442;SDS011;3254;47.372;8.512;2022-12-18T03:06:48;65.43;;;30.73;;
6442;SDS011;3254;47.372;8.512;2022-12-18T03:09:24;61.88;;;32.25;;
6442;SDS011;3254;47.372;8.512;2022-12-18T03:11:58;61.50;;;30.05;;
6442;SDS011;3254;47.372;8.512;2022-12-18T03:14:50;63.03;;;31.50;;
6442;SDS011;3254;47.372;8.512;2022-12-18T03:17:20;58.38;;;30.40;;
6442;SDS011;3254;47.372;8.512;2022-12-18T03:19:49;58.60;;;31.02;;
6442;SDS011;3254;47.372;8.512;2022-12-18T03:22:17;61.33;;;31.45;;
6442;SDS011;3254;47.372;8.512;2022-12-18T03:24:45;64.63;;;30.67;;
6442;SDS011;3254;47.372;8.512;2022-12-18T03:27:12;53.97;;;29.23;;
6442;SDS011;3254;47.372;8.512;2022-12-18T03:29:48;61.17;;;31.48;;
6442;SDS011;3254;47.372;8.512;2022-12-18T03:35:20;56.50;;;30.45;;
6442;SDS011;3254;47.372;8.512;2022-12-18T03:37:49;58.33;;;30.73;;
6442;SDS011;3254;47.372;8.512;2022-12-18T03:40:15;62.30;;;29.93;;
6442;SDS011;3254;47.372;8.512;2022-12-18T03:42:48;57.03;;;30.17;;
6442;SDS011;3254;47.372;8.512;2022-12-18T03:45:26;58.63;;;31.42;;
6442;SDS011;3254;47.372;8.512;2022-12-18T03:50:44;61.58;;;31.65;;
6442;SDS011;3254;47.372;8.512;2022-12-18T03:53:36;65.20;;;31.80;;
6442;SDS011;3254;47.372;8.512;2022-12-18T03:56:12;63.72;;;32.20;;
6442;SDS011;3254;47.372;8.512;2022-12-18T03:58:41;63.42;;;31.90;;
6442;SDS011;3254;47.372;8.512;2022-12-18T04:01:08;58.88;;;30.95;;
6442;SDS011;3254;47.372;8.512;2022-12-18T04:03:38;65.70;;;34.80;;
6442;SDS011;3254;47.372;8.512;2022-12-18T04:06:05;65.43;;;32.85;;
6442;SDS011;3254;47.372;8.512;2022-12-18T04:08:32;58.40;;;30.27;;
6442;SDS011;3254;47.372;8.512;2022-12-18T04:11:00;57.72;;;29.85;;
6442;SDS011;3254;47.372;8.512;2022-12-18T04:13:33;59.67;;;30.63;;
6442;SDS011;3254;47.372;8.512;2022-12-18T04:16:14;58.45;;;31.00;;
6442;SDS011;3254;47.372;8.512;2022-12-18T04:18:40;52.30;;;29.97;;
6442;SDS011;3254;47.372;8.512;2022-12-18T04:21:05;59.47;;;29.63;;
6442;SDS011;3254;47.372;8.512;2022-12-18T04:23:31;53.97;;;28.33;;
6442;SDS011;3254;47.372;8.512;2022-12-18T04:25:57;54.67;;;28.37;;
6442;SDS011;3254;47.372;8.512;2022-12-18T04:28:22;58.67;;;29.47;;
6442;SDS011;3254;47.372;8.512;2022-12-18T04:30:48;58.17;;;29.90;;
6442;SDS011;3254;47.372;8.512;2022-12-18T04:33:17;56.37;;;29.20;;
6442;SDS011;3254;47.372;8.512;2022-12-18T04:35:43;59.40;;;29.80;;
6442;SDS011;3254;47.372;8.512;2022-12-18T04:38:10;57.42;;;29.90;;
6442;SDS011;3254;47.372;8.512;2022-12-18T04:40:36;55.13;;;27.47;;
6442;SDS011;3254;47.372;8.512;2022-12-18T04:43:02;52.58;;;27.08;;
6442;SDS011;3254;47.372;8.512;2022-12-18T04:45:28;52.47;;;28.20;;
6442;SDS011;3254;47.372;8.512;2022-12-18T04:47:54;59.53;;;30.48;;
6442;SDS011;3254;47.372;8.512;2022-12-18T04:50:24;58.92;;;29.67;;
6442;SDS011;3254;47.372;8.512;2022-12-18T04:52:49;58.90;;;29.67;;
6442;SDS011;3254;47.372;8.512;2022-12-18T04:55:15;58.37;;;29.00;;
6442;SDS011;3254;47.372;8.512;2022-12-18T04:57:41;56.90;;;29.97;;
6442;SDS011;3254;47.372;8.512;2022-12-18T05:00:07;51.23;;;27.17;;
6442;SDS011;3254;47.372;8.512;2022-12-18T05:02:33;46.78;;;24.88;;
6442;SDS011;3254;47.372;8.512;2022-12-18T05:04:58;47.17;;;25.40;;
6442;SDS011;3254;47.372;8.512;2022-12-18T05:07:24;41.20;;;23.67;;
6442;SDS011;3254;47.372;8.512;2022-12-18T05:09:49;48.77;;;24.63;;
6442;SDS011;3254;47.372;8.512;2022-12-18T05:12:15;43.97;;;24.33;;
6442;SDS011;3254;47.372;8.512;2022-12-18T05:14:41;50.63;;;25.43;;
6442;SDS011;3254;47.372;8.512;2022-12-18T05:17:06;45.00;;;24.10;;
6442;SDS011;3254;47.372;8.512;2022-12-18T05:19:32;39.63;;;22.00;;
6442;SDS011;3254;47.372;8.512;2022-12-18T05:21:57;46.90;;;24.83;;
6442;SDS011;3254;47.372;8.512;2022-12-18T05:24:23;41.90;;;22.80;;
6442;SDS011;3254;47.372;8.512;2022-12-18T05:26:49;40.50;;;22.73;;
6442;SDS011;3254;47.372;8.512;2022-12-18T05:29:14;39.70;;;20.83;;
6442;SDS011;3254;47.372;8.512;2022-12-18T05:31:40;41.37;;;21.90;;
6442;SDS011;3254;47.372;8.512;2022-12-18T05:34:06;44.90;;;23.77;;
6442;SDS011;3254;47.372;8.512;2022-12-18T05:36:32;42.20;;;23.50;;
6442;SDS011;3254;47.372;8.512;2022-12-18T05:38:57;46.80;;;24.37;;
6442;SDS011;3254;47.372;8.512;2022-12-18T05:41:23;45.80;;;22.60;;
6442;SDS011;3254;47.372;8.512;2022-12-18T05:43:48;44.30;;;23.60;;
6442;SDS011;3254;47.372;8.512;2022-12-18T05:46:15;42.30;;;23.43;;
6442;SDS011;3254;47.372;8.512;2022-12-18T05:48:42;43.00;;;22.80;;
6442;SDS011;3254;47.372;8.512;2022-12-18T05:51:10;43.38;;;23.58;;
6442;SDS011;3254;47.372;8.512;2022-12-18T05:53:39;44.50;;;23.27;;
6442;SDS011;3254;47.372;8.512;2022-12-18T05:56:06;44.90;;;24.10;;
6442;SDS011;3254;47.372;8.512;2022-12-18T05:58:33;41.60;;;21.88;;
6442;SDS011;3254;47.372;8.512;2022-12-18T06:01:05;48.77;;;24.40;;
6442;SDS011;3254;47.372;8.512;2022-12-18T06:03:51;53.95;;;26.42;;
6442;SDS011;3254;47.372;8.512;2022-12-18T06:06:18;54.33;;;25.53;;
6442;SDS011;3254;47.372;8.512;2022-12-18T06:08:45;41.35;;;22.80;;
6442;SDS011;3254;47.372;8.512;2022-12-18T06:11:12;42.10;;;22.95;;
6442;SDS011;3254;47.372;8.512;2022-12-18T06:13:38;43.55;;;24.42;;
6442;SDS011;3254;47.372;8.512;2022-12-18T06:16:04;49.73;;;24.33;;
6442;SDS011;3254;47.372;8.512;2022-12-18T06:18:31;46.22;;;24.83;;
6442;SDS011;3254;47.372;8.512;2022-12-18T06:20:57;42.78;;;23.13;;
6442;SDS011;3254;47.372;8.512;2022-12-18T06:23:24;45.78;;;23.35;;
6442;SDS011;3254;47.372;8.512;2022-12-18T06:25:49;41.10;;;22.80;;
6442;SDS011;3254;47.372;8.512;2022-12-18T06:28:15;43.63;;;23.30;;
6442;SDS011;3254;47.372;8.512;2022-12-18T06:30:44;43.87;;;24.23;;
6442;SDS011;3254;47.372;8.512;2022-12-18T06:33:13;41.28;;;23.23;;
6442;SDS011;3254;47.372;8.512;2022-12-18T06:35:39;43.65;;;23.67;;
6442;SDS011;3254;47.372;8.512;2022-12-18T06:38:05;45.73;;;24.80;;
6442;SDS011;3254;47.372;8.512;2022-12-18T06:40:30;43.33;;;23.93;;
6442;SDS011;3254;47.372;8.512;2022-12-18T06:42:57;47.50;;;24.40;;
6442;SDS011;3254;47.372;8.512;2022-12-18T06:45:22;48.28;;;24.48;;
6442;SDS011;3254;47.372;8.512;2022-12-18T06:47:48;41.20;;;22.53;;
6442;SDS011;3254;47.372;8.512;2022-12-18T06:50:13;43.27;;;23.60;;
6442;SDS011;3254;47.372;8.512;2022-12-18T06:52:39;46.70;;;23.50;;
6442;SDS011;3254;47.372;8.512;2022-12-18T06:55:06;40.30;;;22.67;;
6442;SDS011;3254;47.372;8.512;2022-12-18T06:57:32;46.30;;;23.88;;
6442;SDS011;3254;47.372;8.512;2022-12-18T06:59:58;48.00;;;21.73;;
6442;SDS011;3254;47.372;8.512;2022-12-18T07:02:24;46.10;;;23.70;;
6442;SDS011;3254;47.372;8.512;2022-12-18T07:04:49;43.87;;;23.03;;
6442;SDS011;3254;47.372;8.512;2022-12-18T07:07:15;42.07;;;22.90;;
6442;SDS011;3254;47.372;8.512;2022-12-18T07:09:40;46.63;;;24.57;;
6442;SDS011;3254;47.372;8.512;2022-12-18T07:12:06;46.07;;;23.63;;
6442;SDS011;3254;47.372;8.512;2022-12-18T07:14:32;45.20;;;23.65;;
6442;SDS011;3254;47.372;8.512;2022-12-18T07:16:58;43.17;;;22.97;;
6442;SDS011;3254;47.372;8.512;2022-12-18T07:19:24;47.60;;;24.30;;
6442;SDS011;3254;47.372;8.512;2022-12-18T07:21:50;60.43;;;23.67;;
6442;SDS011;3254;47.372;8.512;2022-12-18T07:24:16;47.78;;;24.35;;
6442;SDS011;3254;47.372;8.512;2022-12-18T07:26:41;39.77;;;22.63;;
6442;SDS011;3254;47.372;8.512;2022-12-18T07:29:07;47.00;;;24.50;;
6442;SDS011;3254;47.372;8.512;2022-12-18T07:31:33;46.33;;;23.70;;
6442;SDS011;3254;47.372;8.512;2022-12-18T07:33:58;48.43;;;25.30;;
6442;SDS011;3254;47.372;8.512;2022-12-18T07:36:24;43.67;;;22.77;;
6442;SDS011;3254;47.372;8.512;2022-12-18T07:38:50;44.30;;;22.27;;
6442;SDS011;3254;47.372;8.512;2022-12-18T07:41:17;46.40;;;24.35;;
6442;SDS011;3254;47.372;8.512;2022-12-18T07:43:43;45.80;;;23.23;;
6442;SDS011;3254;47.372;8.512;2022-12-18T07:46:09;40.87;;;22.10;;
6442;SDS011;3254;47.372;8.512;2022-12-18T07:48:36;52.05;;;25.13;;
6442;SDS011;3254;47.372;8.512;2022-12-18T07:51:02;48.53;;;23.60;;
6442;SDS011;3254;47.372;8.512;2022-12-18T07:53:30;50.67;;;24.95;;
6442;SDS011;3254;47.372;8.512;2022-12-18T07:56:00;50.80;;;26.13;;
6442;SDS011;3254;47.372;8.512;2022-12-18T07:58:28;45.28;;;24.08;;
6442;SDS011;3254;47.372;8.512;2022-12-18T08:00:54;51.60;;;25.92;;
6442;SDS011;3254;47.372;8.512;2022-12-18T08:03:26;47.20;;;24.90;;
6442;SDS011;3254;47.372;8.512;2022-12-18T08:05:52;44.60;;;23.40;;
6442;SDS011;3254;47.372;8.512;2022-12-18T08:08:17;44.93;;;23.47;;
6442;SDS011;3254;47.372;8.512;2022-12-18T08:10:43;46.10;;;23.90;;
6442;SDS011;3254;47.372;8.512;2022-12-18T08:13:08;50.17;;;25.60;;
6442;SDS011;3254;47.372;8.512;2022-12-18T08:15:34;42.93;;;23.80;;
6442;SDS011;3254;47.372;8.512;2022-12-18T08:17:59;42.80;;;24.20;;
6442;SDS011;3254;47.372;8.512;2022-12-18T08:20:25;48.13;;;24.83;;
6442;SDS011;3254;47.372;8.512;2022-12-18T08:22:50;46.30;;;24.97;;
6442;SDS011;3254;47.372;8.512;2022-12-18T08:25:16;47.80;;;24.30;;
6442;SDS011;3254;47.372;8.512;2022-12-18T08:27:42;45.03;;;23.50;;
6442;SDS011;3254;47.372;8.512;2022-12-18T08:30:07;47.10;;;24.70;;
6442;SDS011;3254;47.372;8.512;2022-12-18T08:32:33;46.80;;;24.08;;
6442;SDS011;3254;47.372;8.512;2022-12-18T08:34:59;47.97;;;24.73;;
6442;SDS011;3254;47.372;8.512;2022-12-18T08:37:25;52.37;;;23.70;;
6442;SDS011;3254;47.372;8.512;2022-12-18T08:39:50;46.50;;;23.90;;
6442;SDS011;3254;47.372;8.512;2022-12-18T08:42:16;54.07;;;26.93;;
6442;SDS011;3254;47.372;8.512;2022-12-18T08:45:01;42.42;;;22.58;;
6442;SDS011;3254;47.372;8.512;2022-12-18T08:47:27;46.05;;;23.30;;
6442;SDS011;3254;47.372;8.512;2022-12-18T08:49:53;45.73;;;23.57;;
6442;SDS011;3254;47.372;8.512;2022-12-18T08:52:19;47.60;;;23.73;;
6442;SDS011;3254;47.372;8.512;2022-12-18T08:54:45;41.30;;;21.70;;
6442;SDS011;3254;47.372;8.512;2022-12-18T08:57:10;46.37;;;22.90;;
6442;SDS011;3254;47.372;8.512;2022-12-18T08:59:36;49.40;;;24.70;;
6442;SDS011;3254;47.372;8.512;2022-12-18T09:02:01;46.73;;;22.97;;
6442;SDS011;3254;47.372;8.512;2022-12-18T09:04:27;44.60;;;22.70;;
6442;SDS011;3254;47.372;8.512;2022-12-18T09:06:52;46.00;;;23.60;;
6442;SDS011;3254;47.372;8.512;2022-12-18T09:09:18;38.23;;;21.73;;
6442;SDS011;3254;47.372;8.512;2022-12-18T09:11:43;45.77;;;24.23;;
6442;SDS011;3254;47.372;8.512;2022-12-18T09:14:09;49.80;;;24.57;;
6442;SDS011;3254;47.372;8.512;2022-12-18T09:16:35;46.63;;;24.33;;
6442;SDS011;3254;47.372;8.512;2022-12-18T09:19:01;43.43;;;23.07;;
6442;SDS011;3254;47.372;8.512;2022-12-18T09:21:30;45.20;;;23.63;;
6442;SDS011;3254;47.372;8.512;2022-12-18T09:23:56;48.15;;;24.83;;
6442;SDS011;3254;47.372;8.512;2022-12-18T09:26:22;44.50;;;23.13;;
6442;SDS011;3254;47.372;8.512;2022-12-18T09:28:50;47.47;;;23.80;;
6442;SDS011;3254;47.372;8.512;2022-12-18T09:31:16;43.10;;;22.37;;
6442;SDS011;3254;47.372;8.512;2022-12-18T09:33:43;41.83;;;23.30;;
6442;SDS011;3254;47.372;8.512;2022-12-18T09:36:11;44.28;;;22.35;;
6442;SDS011;3254;47.372;8.512;2022-12-18T09:38:38;44.83;;;22.83;;
6442;SDS011;3254;47.372;8.512;2022-12-18T09:41:19;50.70;;;25.07;;
6442;SDS011;3254;47.372;8.512;2022-12-18T09:43:54;54.33;;;25.17;;
6442;SDS011;3254;47.372;8.512;2022-12-18T09:46:27;43.67;;;23.00;;
6442;SDS011;3254;47.372;8.512;2022-12-18T09:48:57;46.40;;;23.45;;
6442;SDS011;3254;47.372;8.512;2022-12-18T09:53:55;43.47;;;22.90;;
6442;SDS011;3254;47.372;8.512;2022-12-18T09:56:26;41.42;;;22.77;;
6442;SDS011;3254;47.372;8.512;2022-12-18T09:59:00;43.58;;;23.63;;
6442;SDS011;3254;47.372;8.512;2022-12-18T10:01:27;41.80;;;22.80;;
6442;SDS011;3254;47.372;8.512;2022-12-18T10:03:54;43.38;;;22.65;;
6442;SDS011;3254;47.372;8.512;2022-12-18T10:06:36;42.08;;;23.08;;
6442;SDS011;3254;47.372;8.512;2022-12-18T10:09:18;43.83;;;22.58;;
6442;SDS011;3254;47.372;8.512;2022-12-18T10:12:08;39.72;;;22.42;;
6442;SDS011;3254;47.372;8.512;2022-12-18T10:20:16;41.45;;;21.98;;
6442;SDS011;3254;47.372;8.512;2022-12-18T10:23:03;44.60;;;22.95;;
6442;SDS011;3254;47.372;8.512;2022-12-18T10:26:25;42.65;;;22.25;;
6442;SDS011;3254;47.372;8.512;2022-12-18T10:28:27;43.33;;;23.63;;
6442;SDS011;3254;47.372;8.512;2022-12-18T10:30:56;41.90;;;21.88;;
6442;SDS011;3254;47.372;8.512;2022-12-18T10:33:22;42.77;;;23.17;;
6442;SDS011;3254;47.372;8.512;2022-12-18T10:35:50;42.17;;;21.80;;
6442;SDS011;3254;47.372;8.512;2022-12-18T10:41:01;39.73;;;21.97;;
6442;SDS011;3254;47.372;8.512;2022-12-18T10:43:35;38.63;;;20.85;;
6442;SDS011;3254;47.372;8.512;2022-12-18T10:46:04;40.33;;;21.75;;
6442;SDS011;3254;47.372;8.512;2022-12-18T10:48:48;38.33;;;22.00;;
6442;SDS011;3254;47.372;8.512;2022-12-18T10:53:57;41.28;;;21.15;;
6442;SDS011;3254;47.372;8.512;2022-12-18T10:56:27;45.17;;;21.20;;
6442;SDS011;3254;47.372;8.512;2022-12-18T10:59:05;41.65;;;21.70;;
6442;SDS011;3254;47.372;8.512;2022-12-18T11:01:51;43.53;;;21.27;;
6442;SDS011;3254;47.372;8.512;2022-12-18T11:04:30;39.78;;;20.60;;
6442;SDS011;3254;47.372;8.512;2022-12-18T11:12:01;42.22;;;21.15;;
6442;SDS011;3254;47.372;8.512;2022-12-18T11:14:32;37.80;;;19.90;;
6442;SDS011;3254;47.372;8.512;2022-12-18T11:16:59;37.63;;;21.25;;
6442;SDS011;3254;47.372;8.512;2022-12-18T11:19:38;37.58;;;20.35;;
6442;SDS011;3254;47.372;8.512;2022-12-18T11:22:19;40.75;;;21.00;;
6442;SDS011;3254;47.372;8.512;2022-12-18T11:25:37;42.63;;;21.63;;
6442;SDS011;3254;47.372;8.512;2022-12-18T11:27:41;35.35;;;20.52;;
6442;SDS011;3254;47.372;8.512;2022-12-18T11:30:33;38.75;;;21.00;;
6442;SDS011;3254;47.372;8.512;2022-12-18T11:35:49;41.50;;;21.92;;
6442;SDS011;3254;47.372;8.512;2022-12-18T11:38:24;42.35;;;22.88;;
6442;SDS011;3254;47.372;8.512;2022-12-18T11:44:09;42.63;;;22.48;;
6442;SDS011;3254;47.372;8.512;2022-12-18T11:46:46;38.40;;;20.75;;
6442;SDS011;3254;47.372;8.512;2022-12-18T11:49:34;43.90;;;22.50;;
6442;SDS011;3254;47.372;8.512;2022-12-18T11:52:07;44.70;;;22.40;;
6442;SDS011;3254;47.372;8.512;2022-12-18T11:54:41;42.55;;;21.63;;
6442;SDS011;3254;47.372;8.512;2022-12-18T11:57:09;38.00;;;21.40;;
6442;SDS011;3254;47.372;8.512;2022-12-18T11:59:56;41.67;;;22.33;;
6442;SDS011;3254;47.372;8.512;2022-12-18T12:05:35;42.13;;;20.67;;
6442;SDS011;3254;47.372;8.512;2022-12-18T12:10:48;40.85;;;22.08;;
6442;SDS011;3254;47.372;8.512;2022-12-18T12:21:34;41.83;;;22.52;;
6442;SDS011;3254;47.372;8.512;2022-12-18T12:26:59;43.25;;;21.40;;
6442;SDS011;3254;47.372;8.512;2022-12-18T12:40:49;45.60;;;22.67;;
6442;SDS011;3254;47.372;8.512;2022-12-18T12:43:28;37.58;;;22.02;;
6442;SDS011;3254;47.372;8.512;2022-12-18T12:46:10;39.95;;;21.85;;
6442;SDS011;3254;47.372;8.512;2022-12-18T12:51:34;40.33;;;21.80;;
6442;SDS011;3254;47.372;8.512;2022-12-18T12:54:03;44.40;;;22.35;;
6442;SDS011;3254;47.372;8.512;2022-12-18T12:56:46;43.47;;;22.85;;
6442;SDS011;3254;47.372;8.512;2022-12-18T12:59:26;43.90;;;22.52;;
6442;SDS011;3254;47.372;8.512;2022-12-18T13:04:48;40.53;;;22.38;;
6442;SDS011;3254;47.372;8.512;2022-12-18T13:12:53;35.00;;;19.27;;
6442;SDS011;3254;47.372;8.512;2022-12-18T13:15:33;42.00;;;21.90;;
6442;SDS011;3254;47.372;8.512;2022-12-18T13:20:35;36.73;;;20.27;;
6442;SDS011;3254;47.372;8.512;2022-12-18T13:25:54;40.33;;;21.25;;
6442;SDS011;3254;47.372;8.512;2022-12-18T13:30:59;39.33;;;21.83;;
6442;SDS011;3254;47.372;8.512;2022-12-18T13:38:40;44.67;;;23.00;;
6442;SDS011;3254;47.372;8.512;2022-12-18T13:48:49;39.13;;;21.35;;
6442;SDS011;3254;47.372;8.512;2022-12-18T13:51:17;41.90;;;21.42;;
6442;SDS011;3254;47.372;8.512;2022-12-18T13:53:46;40.47;;;22.45;;
6442;SDS011;3254;47.372;8.512;2022-12-18T13:56:16;44.72;;;21.10;;
6442;SDS011;3254;47.372;8.512;2022-12-18T13:58:43;40.22;;;22.55;;
6442;SDS011;3254;47.372;8.512;2022-12-18T14:01:29;41.77;;;22.80;;
6442;SDS011;3254;47.372;8.512;2022-12-18T14:04:10;40.28;;;21.92;;
6442;SDS011;3254;47.372;8.512;2022-12-18T14:06:37;42.00;;;23.15;;
6442;SDS011;3254;47.372;8.512;2022-12-18T14:09:03;41.42;;;22.25;;
6442;SDS011;3254;47.372;8.512;2022-12-18T14:11:29;47.23;;;24.07;;
6442;SDS011;3254;47.372;8.512;2022-12-18T14:13:55;40.95;;;21.27;;
6442;SDS011;3254;47.372;8.512;2022-12-18T14:16:21;41.70;;;23.90;;
6442;SDS011;3254;47.372;8.512;2022-12-18T14:18:52;42.33;;;23.45;;
6442;SDS011;3254;47.372;8.512;2022-12-18T14:21:27;41.80;;;21.88;;
6442;SDS011;3254;47.372;8.512;2022-12-18T14:26:29;50.60;;;26.33;;
6442;SDS011;3254;47.372;8.512;2022-12-18T14:28:58;41.92;;;23.52;;
6442;SDS011;3254;47.372;8.512;2022-12-18T14:31:28;46.17;;;22.90;;
6442;SDS011;3254;47.372;8.512;2022-12-18T14:33:55;43.60;;;23.35;;
6442;SDS011;3254;47.372;8.512;2022-12-18T14:36:25;44.00;;;23.27;;
6442;SDS011;3254;47.372;8.512;2022-12-18T14:38:56;42.13;;;21.95;;
6442;SDS011;3254;47.372;8.512;2022-12-18T14:41:23;40.65;;;21.27;;
6442;SDS011;3254;47.372;8.512;2022-12-18T14:43:50;42.03;;;22.77;;
6442;SDS011;3254;47.372;8.512;2022-12-18T14:46:32;46.20;;;22.50;;
6442;SDS011;3254;47.372;8.512;2022-12-18T14:49:03;51.58;;;24.10;;
6442;SDS011;3254;47.372;8.512;2022-12-18T14:51:41;46.25;;;24.23;;
6442;SDS011;3254;47.372;8.512;2022-12-18T14:54:17;46.60;;;24.83;;
6442;SDS011;3254;47.372;8.512;2022-12-18T14:56:48;41.25;;;23.55;;
6442;SDS011;3254;47.372;8.512;2022-12-18T14:59:20;52.70;;;26.08;;
6442;SDS011;3254;47.372;8.512;2022-12-18T15:01:58;49.83;;;25.23;;
6442;SDS011;3254;47.372;8.512;2022-12-18T15:04:40;49.05;;;25.23;;
6442;SDS011;3254;47.372;8.512;2022-12-18T15:09:44;49.20;;;25.85;;
6442;SDS011;3254;47.372;8.512;2022-12-18T15:12:33;45.65;;;25.08;;
6442;SDS011;3254;47.372;8.512;2022-12-18T15:14:59;50.30;;;23.13;;
6442;SDS011;3254;47.372;8.512;2022-12-18T15:17:24;50.53;;;25.03;;
6442;SDS011;3254;47.372;8.512;2022-12-18T15:19:51;50.45;;;24.65;;
6442;SDS011;3254;47.372;8.512;2022-12-18T15:22:29;45.97;;;24.00;;
6442;SDS011;3254;47.372;8.512;2022-12-18T15:24:59;47.70;;;25.23;;
6442;SDS011;3254;47.372;8.512;2022-12-18T15:27:29;49.35;;;26.27;;
6442;SDS011;3254;47.372;8.512;2022-12-18T15:32:33;50.83;;;24.45;;
6442;SDS011;3254;47.372;8.512;2022-12-18T15:35:03;50.67;;;24.92;;
6442;SDS011;3254;47.372;8.512;2022-12-18T15:37:34;50.17;;;25.40;;
6442;SDS011;3254;47.372;8.512;2022-12-18T15:40:00;46.97;;;23.20;;
6442;SDS011;3254;47.372;8.512;2022-12-18T15:42:27;49.28;;;24.20;;
6442;SDS011;3254;47.372;8.512;2022-12-18T15:45:12;52.35;;;25.30;;
6442;SDS011;3254;47.372;8.512;2022-12-18T15:47:37;51.45;;;24.25;;
6442;SDS011;3254;47.372;8.512;2022-12-18T15:50:03;48.57;;;23.57;;
6442;SDS011;3254;47.372;8.512;2022-12-18T15:52:39;54.88;;;25.50;;
6442;SDS011;3254;47.372;8.512;2022-12-18T15:55:13;51.83;;;25.65;;
6442;SDS011;3254;47.372;8.512;2022-12-18T15:57:59;49.45;;;24.60;;
6442;SDS011;3254;47.372;8.512;2022-12-18T16:00:25;48.77;;;24.83;;
6442;SDS011;3254;47.372;8.512;2022-12-18T16:02:51;48.00;;;23.23;;
6442;SDS011;3254;47.372;8.512;2022-12-18T16:05:17;48.40;;;25.93;;
6442;SDS011;3254;47.372;8.512;2022-12-18T16:07:44;55.42;;;25.63;;
6442;SDS011;3254;47.372;8.512;2022-12-18T16:10:10;56.90;;;25.50;;
6442;SDS011;3254;47.372;8.512;2022-12-18T16:12:36;45.90;;;23.60;;
6442;SDS011;3254;47.372;8.512;2022-12-18T16:15:02;48.03;;;23.93;;
6442;SDS011;3254;47.372;8.512;2022-12-18T16:17:29;50.25;;;23.85;;
6442;SDS011;3254;47.372;8.512;2022-12-18T16:19:54;52.50;;;24.40;;
6442;SDS011;3254;47.372;8.512;2022-12-18T16:22:24;49.40;;;24.80;;
6442;SDS011;3254;47.372;8.512;2022-12-18T16:24:52;53.35;;;23.15;;
6442;SDS011;3254;47.372;8.512;2022-12-18T16:27:18;52.15;;;25.35;;
6442;SDS011;3254;47.372;8.512;2022-12-18T16:29:44;48.30;;;24.73;;
6442;SDS011;3254;47.372;8.512;2022-12-18T16:32:14;55.63;;;26.03;;
6442;SDS011;3254;47.372;8.512;2022-12-18T16:34:44;50.28;;;24.05;;
6442;SDS011;3254;47.372;8.512;2022-12-18T16:37:11;51.15;;;25.10;;
6442;SDS011;3254;47.372;8.512;2022-12-18T16:39:38;50.83;;;25.80;;
6442;SDS011;3254;47.372;8.512;2022-12-18T16:42:12;52.17;;;25.52;;
6442;SDS011;3254;47.372;8.512;2022-12-18T16:44:41;51.97;;;25.20;;
6442;SDS011;3254;47.372;8.512;2022-12-18T16:47:07;50.05;;;25.58;;
6442;SDS011;3254;47.372;8.512;2022-12-18T16:49:33;45.72;;;23.73;;
6442;SDS011;3254;47.372;8.512;2022-12-18T16:51:59;50.80;;;26.30;;
6442;SDS011;3254;47.372;8.512;2022-12-18T16:54:25;49.60;;;25.43;;
6442;SDS011;3254;47.372;8.512;2022-12-18T16:56:54;52.85;;;26.38;;
6442;SDS011;3254;47.372;8.512;2022-12-18T16:59:20;55.60;;;25.77;;
6442;SDS011;3254;47.372;8.512;2022-12-18T17:01:45;54.07;;;27.37;;
6442;SDS011;3254;47.372;8.512;2022-12-18T17:04:11;50.90;;;26.83;;
6442;SDS011;3254;47.372;8.512;2022-12-18T17:06:41;44.03;;;23.53;;